Time;durP1;ratioP1;P1;durP2;ratioP2;P2;SDS_P1;SDS_P2;PMS_P1;PMS_P2;Temp;Humidity;BMP_temperature;BMP_pressure;BME280_temperature;BME280_humidity;BME280_pressure;Samples;Min_cycle;Max_cycle;Signal;HPM_P1;HPM_P2
2022/12/24 00:02:17;;;;;;;44.05;6.35;;;9.80;99.90;;;;;;5043632;28;20041;-70
2022/12/24 00:04:43;;;;;;;45.97;6.70;;;9.80;99.90;;;;;;5051589;28;20021;-69
2022/12/24 00:07:08;;;;;;;45.72;6.90;;;9.80;99.90;;;;;;5055308;28;20037;-70
2022/12/24 00:09:34;;;;;;;46.10;6.28;;;9.70;99.90;;;;;;5056888;28;20061;-71
2022/12/24 00:11:59;;;;;;;40.17;7.57;;;9.80;99.90;;;;;;5057790;28;20365;-69
2022/12/24 00:14:25;;;;;;;53.28;7.90;;;9.70;99.90;;;;;;5062108;28;20183;-70
2022/12/24 00:16:50;;;;;;;47.28;6.95;;;9.70;99.90;;;;;;5059072;28;20047;-70
2022/12/24 00:19:16;;;;;;;47.10;6.32;;;9.70;99.90;;;;;;5056828;28;20117;-70
2022/12/24 00:21:42;;;;;;;44.30;5.97;;;9.60;99.90;;;;;;5059780;28;20033;-70
2022/12/24 00:24:07;;;;;;;41.03;5.50;;;9.60;99.90;;;;;;5055586;28;20048;-70
2022/12/24 00:26:33;;;;;;;28.85;5.10;;;9.50;99.90;;;;;;5055112;28;20029;-71
2022/12/24 00:28:59;;;;;;;56.47;7.18;;;9.50;99.90;;;;;;5054526;28;20362;-70
2022/12/24 00:31:25;;;;;;;45.22;6.72;;;9.50;99.90;;;;;;5054277;28;20469;-71
2022/12/24 00:33:50;;;;;;;52.33;6.75;;;9.50;99.90;;;;;;5054732;28;20025;-71
2022/12/24 00:36:17;;;;;;;44.30;6.00;;;9.50;99.90;;;;;;5048674;28;20053;-70
2022/12/24 00:38:43;;;;;;;47.53;6.85;;;9.40;99.90;;;;;;5046253;28;20070;-70
2022/12/24 00:41:24;;;;;;;52.08;7.70;;;9.40;99.90;;;;;;5054637;28;20049;-70
2022/12/24 00:44:01;;;;;;;40.35;6.30;;;9.40;99.90;;;;;;5053724;28;20032;-70
2022/12/24 00:46:29;;;;;;;59.00;6.85;;;9.40;99.90;;;;;;5054873;28;20104;-70
2022/12/24 00:48:55;;;;;;;34.20;6.15;;;9.40;99.90;;;;;;5054243;28;20500;-70
2022/12/24 00:51:22;;;;;;;54.63;7.40;;;9.30;99.90;;;;;;5054511;28;20017;-70
2022/12/24 00:53:48;;;;;;;45.28;5.72;;;9.30;99.90;;;;;;5055029;28;20523;-69
2022/12/24 00:56:13;;;;;;;33.63;5.53;;;9.30;99.90;;;;;;5054364;28;20064;-70
2022/12/24 00:58:39;;;;;;;44.35;6.95;;;9.30;99.90;;;;;;5053605;28;20041;-70
2022/12/24 01:01:05;;;;;;;43.92;8.32;;;9.30;99.90;;;;;;5053853;28;20432;-70
2022/12/24 01:03:34;;;;;;;52.65;7.63;;;9.30;99.90;;;;;;5054283;28;20043;-70
2022/12/24 01:06:04;;;;;;;52.60;6.63;;;9.30;99.90;;;;;;5040723;28;20033;-71
2022/12/24 01:08:30;;;;;;;48.92;7.43;;;9.40;99.90;;;;;;5052657;28;20044;-70
2022/12/24 01:10:56;;;;;;;59.17;7.88;;;9.30;99.90;;;;;;5054134;28;20052;-70
2022/12/24 01:13:22;;;;;;;47.78;7.10;;;9.30;99.90;;;;;;5053293;28;20029;-70
2022/12/24 01:15:48;;;;;;;47.28;6.97;;;9.30;99.90;;;;;;5054020;28;20033;-70
2022/12/24 01:18:13;;;;;;;42.95;6.35;;;9.30;99.90;;;;;;5053178;28;20047;-71
2022/12/24 01:20:39;;;;;;;60.70;8.13;;;9.20;99.90;;;;;;5053282;28;20527;-70
2022/12/24 01:23:05;;;;;;;48.15;7.18;;;9.20;99.90;;;;;;5053274;28;20064;-70
2022/12/24 01:25:30;;;;;;;47.05;6.88;;;9.20;99.90;;;;;;5053766;28;20492;-71
2022/12/24 01:27:56;;;;;;;52.97;5.72;;;9.20;99.90;;;;;;5053023;28;20469;-71
2022/12/24 01:30:21;;;;;;;39.65;6.82;;;9.20;99.90;;;;;;5053753;28;20032;-70
2022/12/24 01:32:47;;;;;;;39.72;5.07;;;9.20;99.90;;;;;;5053181;28;20477;-70
2022/12/24 01:35:13;;;;;;;46.88;7.35;;;9.30;99.90;;;;;;5053407;28;20055;-70
2022/12/24 01:37:38;;;;;;;35.20;5.43;;;9.20;99.90;;;;;;5039058;28;20373;-69
2022/12/24 01:45:36;;;;;;;43.80;5.82;;;9.10;99.90;;;;;;5053593;28;20036;-70
2022/12/24 01:48:03;;;;;;;45.67;6.85;;;9.10;99.90;;;;;;5052298;28;20112;-70
2022/12/24 01:50:28;;;;;;;28.98;4.72;;;9.20;99.90;;;;;;5053327;28;20532;-71
2022/12/24 01:52:55;;;;;;;40.00;5.32;;;9.20;99.90;;;;;;5052775;28;20060;-70
2022/12/24 01:55:21;;;;;;;47.08;5.60;;;9.20;99.90;;;;;;5052764;28;20021;-70
2022/12/24 01:57:52;;;;;;;31.42;5.32;;;9.20;99.90;;;;;;5053203;28;20040;-70
2022/12/24 02:00:18;;;;;;;35.97;4.00;;;9.20;99.90;;;;;;5053252;28;20074;-70
2022/12/24 02:02:46;;;;;;;34.47;5.05;;;9.20;99.90;;;;;;5052620;28;20025;-70
2022/12/24 02:05:24;;;;;;;40.45;5.30;;;9.20;99.90;;;;;;5052920;28;20021;-70
2022/12/24 02:07:50;;;;;;;34.55;4.95;;;9.10;99.90;;;;;;5052037;28;20040;-71
2022/12/24 02:10:16;;;;;;;30.08;5.10;;;9.20;99.90;;;;;;5053026;28;20032;-69
2022/12/24 02:12:43;;;;;;;47.53;6.18;;;9.10;99.90;;;;;;5053143;28;20033;-70
2022/12/24 02:15:12;;;;;;;35.15;6.10;;;9.10;99.90;;;;;;5051918;28;20056;-70
2022/12/24 02:18:01;;;;;;;33.40;4.93;;;9.10;99.90;;;;;;5052635;28;20044;-70
2022/12/24 02:20:45;;;;;;;44.83;5.40;;;9.10;99.90;;;;;;5046217;28;20028;-69
2022/12/24 02:23:35;;;;;;;35.60;5.40;;;9.10;99.90;;;;;;5045772;28;20032;-70
2022/12/24 02:26:46;;;;;;;39.13;6.55;;;9.10;99.90;;;;;;5052156;28;20041;-71
2022/12/24 02:29:30;;;;;;;40.45;5.93;;;9.10;99.90;;;;;;5039572;28;20556;-69
2022/12/24 02:32:04;;;;;;;40.72;6.10;;;9.10;99.90;;;;;;5052194;28;20017;-70
2022/12/24 02:35:04;;;;;;;40.95;5.82;;;9.10;99.90;;;;;;5052766;28;20021;-71
2022/12/24 02:37:37;;;;;;;30.90;5.25;;;9.10;99.90;;;;;;5031839;28;20040;-71
2022/12/24 02:40:17;;;;;;;49.45;6.97;;;9.10;99.90;;;;;;5052257;28;20036;-69
2022/12/24 02:42:48;;;;;;;52.58;6.78;;;9.20;99.90;;;;;;5052307;28;20036;-71
2022/12/24 02:45:20;;;;;;;52.10;7.10;;;9.10;99.90;;;;;;5042310;28;20030;-70
2022/12/24 02:47:47;;;;;;;45.00;6.15;;;9.10;99.90;;;;;;5049072;28;20041;-69
2022/12/24 02:50:17;;;;;;;54.70;7.20;;;9.20;99.90;;;;;;5043139;28;20041;-70
2022/12/24 02:52:44;;;;;;;45.08;7.28;;;9.20;99.90;;;;;;5047741;28;20025;-70
2022/12/24 02:55:16;;;;;;;57.45;8.20;;;9.30;99.90;;;;;;5052252;28;20021;-71
2022/12/24 02:58:06;;;;;;;49.05;6.57;;;9.30;99.90;;;;;;5051679;28;20033;-70
2022/12/24 03:00:53;;;;;;;56.33;7.38;;;9.30;99.90;;;;;;5052810;28;20081;-70
2022/12/24 03:03:37;;;;;;;53.17;6.43;;;9.30;99.90;;;;;;5052226;28;20727;-70
2022/12/24 03:06:32;;;;;;;48.00;6.70;;;9.40;99.90;;;;;;5051329;28;20040;-70
2022/12/24 03:09:34;;;;;;;54.47;8.98;;;9.40;99.90;;;;;;5041062;28;20033;-71
2022/12/24 03:12:09;;;;;;;57.38;8.90;;;9.40;99.90;;;;;;5050253;28;20120;-71
2022/12/24 03:14:38;;;;;;;57.55;8.90;;;9.40;99.90;;;;;;5052204;28;20039;-71
2022/12/24 03:17:04;;;;;;;50.03;7.60;;;9.40;99.90;;;;;;5051959;28;20104;-71
2022/12/24 03:19:31;;;;;;;53.72;6.97;;;9.40;99.90;;;;;;5051444;28;20025;-69
2022/12/24 03:21:59;;;;;;;51.88;7.45;;;9.40;99.90;;;;;;5051513;28;20021;-70
2022/12/24 03:24:25;;;;;;;41.38;6.75;;;9.50;99.90;;;;;;5051821;28;20061;-70
2022/12/24 03:26:51;;;;;;;52.30;7.60;;;9.50;99.90;;;;;;5050862;28;20085;-72
2022/12/24 03:29:18;;;;;;;51.45;7.53;;;9.60;99.90;;;;;;5051869;28;20032;-70
2022/12/24 03:31:50;;;;;;;54.10;7.78;;;9.60;99.90;;;;;;5038940;28;20021;-70
2022/12/24 03:34:17;;;;;;;50.25;6.80;;;9.60;99.90;;;;;;5055401;28;20427;-71
2022/12/24 03:36:43;;;;;;;48.35;6.97;;;9.50;99.90;;;;;;5046075;28;20111;-71
2022/12/24 03:39:09;;;;;;;50.85;7.53;;;9.60;99.90;;;;;;5051222;28;20028;-70
2022/12/24 03:41:35;;;;;;;43.17;7.60;;;9.60;99.90;;;;;;5055974;28;20033;-70
2022/12/24 03:44:01;;;;;;;55.42;7.63;;;9.60;99.90;;;;;;5056435;28;20031;-70
2022/12/24 03:46:27;;;;;;;52.70;7.00;;;9.70;99.90;;;;;;5038786;28;20025;-70
2022/12/24 03:48:52;;;;;;;36.88;6.55;;;9.70;99.90;;;;;;5037540;28;20458;-70
2022/12/24 03:51:21;;;;;;;47.78;6.50;;;9.60;99.90;;;;;;5043502;28;20017;-70
2022/12/24 03:53:47;;;;;;;41.47;6.97;;;9.60;99.90;;;;;;5053274;28;20029;-71
2022/12/24 03:56:12;;;;;;;45.70;6.63;;;9.60;99.90;;;;;;5046268;28;20074;-70
2022/12/24 03:58:38;;;;;;;36.42;7.30;;;9.60;99.90;;;;;;5057786;28;20079;-70
2022/12/24 04:01:04;;;;;;;46.60;6.75;;;9.60;99.90;;;;;;5056312;28;20032;-70
2022/12/24 04:03:30;;;;;;;40.75;7.63;;;9.60;99.90;;;;;;5042100;28;20030;-71
2022/12/24 04:06:04;;;;;;;47.08;6.15;;;9.60;99.90;;;;;;5053706;28;20031;-71
2022/12/24 04:08:30;;;;;;;48.90;7.13;;;9.60;99.90;;;;;;5054935;28;20037;-71
2022/12/24 04:10:56;;;;;;;33.80;5.68;;;9.70;99.90;;;;;;5054890;28;20021;-70
2022/12/24 04:13:21;;;;;;;42.70;5.45;;;9.60;99.90;;;;;;5054931;28;20104;-70
2022/12/24 04:16:05;;;;;;;49.95;8.60;;;9.70;99.90;;;;;;5054444;28;20025;-71
2022/12/24 04:18:31;;;;;;;38.30;7.15;;;9.70;99.90;;;;;;5054928;28;20477;-70
2022/12/24 04:20:57;;;;;;;44.78;5.20;;;9.70;99.90;;;;;;5040985;28;20410;-71
2022/12/24 04:23:23;;;;;;;33.08;5.63;;;9.70;99.90;;;;;;5054688;28;20151;-70
2022/12/24 04:25:49;;;;;;;38.67;5.95;;;9.70;99.90;;;;;;5054453;28;20554;-71
2022/12/24 04:28:16;;;;;;;35.72;6.25;;;9.70;99.90;;;;;;5054694;28;20473;-71
2022/12/24 04:30:42;;;;;;;35.70;5.50;;;9.80;99.90;;;;;;5052564;28;20021;-70
2022/12/24 04:33:08;;;;;;;26.20;5.90;;;9.80;99.90;;;;;;5054095;28;20358;-70
2022/12/24 04:35:40;;;;;;;33.40;5.20;;;9.80;99.90;;;;;;5054133;28;20033;-70
2022/12/24 04:38:10;;;;;;;37.95;6.93;;;9.70;99.90;;;;;;5054432;28;20063;-71
2022/12/24 04:40:35;;;;;;;41.00;6.18;;;9.70;99.90;;;;;;5055372;28;20104;-71
2022/12/24 04:43:01;;;;;;;44.05;6.85;;;9.70;99.90;;;;;;5052747;28;20112;-70
2022/12/24 04:45:30;;;;;;;43.97;6.90;;;9.80;99.90;;;;;;5054945;28;20021;-70
2022/12/24 04:47:55;;;;;;;45.55;6.00;;;9.70;99.90;;;;;;5054199;28;20039;-70
2022/12/24 04:50:21;;;;;;;47.10;6.43;;;9.80;99.90;;;;;;5053450;28;20017;-70
2022/12/24 04:52:47;;;;;;;51.95;6.68;;;9.80;99.90;;;;;;5054476;28;20036;-71
2022/12/24 04:55:12;;;;;;;47.65;6.22;;;9.80;99.90;;;;;;5039848;28;20477;-70
2022/12/24 04:57:38;;;;;;;57.17;8.00;;;9.90;99.90;;;;;;5053817;28;20485;-71
2022/12/24 05:00:05;;;;;;;66.10;8.27;;;9.90;99.90;;;;;;5054003;28;20377;-70
2022/12/24 05:02:30;;;;;;;49.05;8.45;;;9.90;99.90;;;;;;5054738;28;20449;-70
2022/12/24 05:04:56;;;;;;;54.00;7.22;;;9.90;99.90;;;;;;5053534;28;20116;-70
2022/12/24 05:07:22;;;;;;;51.92;6.85;;;10.00;99.90;;;;;;5054295;28;20086;-71
2022/12/24 05:09:47;;;;;;;49.45;7.53;;;10.00;99.90;;;;;;5053910;28;20017;-71
2022/12/24 05:12:13;;;;;;;50.67;7.53;;;10.00;99.90;;;;;;5052444;28;20469;-71
2022/12/24 05:14:39;;;;;;;49.72;8.70;;;10.00;99.90;;;;;;5054053;28;20036;-71
2022/12/24 05:17:07;;;;;;;56.13;8.60;;;10.00;99.90;;;;;;5053576;28;20028;-70
2022/12/24 05:19:33;;;;;;;66.07;7.30;;;10.00;99.90;;;;;;5053233;28;20021;-70
2022/12/24 05:27:26;;;;;;;62.25;8.38;;;10.00;99.90;;;;;;5053864;28;20090;-70
2022/12/24 05:29:52;;;;;;;62.40;9.10;;;10.00;99.90;;;;;;5053651;28;20384;-69
2022/12/24 05:32:18;;;;;;;62.97;8.25;;;10.00;99.90;;;;;;5052757;28;20025;-70
2022/12/24 05:34:43;;;;;;;73.90;9.27;;;10.00;99.90;;;;;;5049274;28;20045;-69
2022/12/24 05:37:09;;;;;;;60.63;8.27;;;9.90;99.90;;;;;;5033671;28;20381;-70
2022/12/24 05:39:34;;;;;;;50.13;7.30;;;10.00;99.90;;;;;;5033076;28;20022;-69
2022/12/24 05:42:00;;;;;;;64.75;7.50;;;10.00;99.90;;;;;;5032966;28;20064;-70
2022/12/24 05:44:25;;;;;;;75.85;10.13;;;10.00;99.90;;;;;;5035407;28;20041;-70
2022/12/24 05:46:51;;;;;;;47.67;7.75;;;10.00;99.90;;;;;;5033142;28;20021;-71
2022/12/24 05:49:17;;;;;;;61.90;9.55;;;10.00;99.90;;;;;;5032752;28;20030;-71
2022/12/24 05:51:42;;;;;;;58.85;7.63;;;10.00;99.90;;;;;;5032149;28;20036;-71
2022/12/24 05:54:08;;;;;;;67.30;9.25;;;10.00;99.90;;;;;;5031105;28;20428;-71
2022/12/24 05:56:33;;;;;;;60.88;8.73;;;10.00;99.90;;;;;;5041550;28;20028;-69
2022/12/24 05:58:59;;;;;;;63.47;8.45;;;10.00;99.90;;;;;;5032511;28;20029;-69
2022/12/24 06:01:25;;;;;;;56.33;8.18;;;10.10;99.90;;;;;;5038119;28;20020;-70
2022/12/24 06:03:52;;;;;;;57.80;8.25;;;10.10;99.90;;;;;;5041407;28;20094;-70
2022/12/24 06:06:20;;;;;;;73.65;9.45;;;10.10;99.90;;;;;;5050219;28;20021;-69
2022/12/24 06:08:47;;;;;;;43.47;6.70;;;10.10;99.90;;;;;;5047694;28;20040;-70
2022/12/24 06:11:16;;;;;;;55.67;7.13;;;10.20;99.90;;;;;;5048086;28;20036;-70
2022/12/24 06:13:43;;;;;;;57.35;9.55;;;10.20;99.90;;;;;;5048266;28;21004;-71
2022/12/24 06:16:12;;;;;;;66.32;9.07;;;10.20;99.90;;;;;;5045582;28;20032;-69
2022/12/24 06:18:38;;;;;;;57.35;8.07;;;10.10;99.90;;;;;;5046475;28;20021;-70
2022/12/24 06:21:07;;;;;;;44.50;6.60;;;10.10;99.90;;;;;;5046875;28;20381;-70
2022/12/24 06:23:35;;;;;;;51.05;9.20;;;10.10;99.90;;;;;;5046301;28;20080;-72
2022/12/24 06:26:02;;;;;;;58.33;8.80;;;10.10;99.90;;;;;;5045835;28;20056;-70
2022/12/24 06:28:33;;;;;;;63.58;8.43;;;10.10;99.90;;;;;;5046762;28;20793;-71
2022/12/24 06:31:02;;;;;;;65.22;7.63;;;10.10;99.90;;;;;;5042485;28;20022;-70
2022/12/24 06:33:29;;;;;;;55.63;9.80;;;10.10;99.90;;;;;;5050081;28;20075;-70
2022/12/24 06:35:55;;;;;;;57.70;7.78;;;10.00;99.90;;;;;;5046917;28;20032;-69
2022/12/24 06:38:20;;;;;;;60.13;8.25;;;10.00;99.90;;;;;;5046681;28;20458;-71
2022/12/24 06:40:46;;;;;;;45.83;8.23;;;10.00;99.90;;;;;;5044873;28;20021;-70
2022/12/24 06:43:13;;;;;;;73.25;10.95;;;9.90;99.90;;;;;;5040398;28;20036;-70
2022/12/24 06:45:43;;;;;;;48.42;6.88;;;9.90;99.90;;;;;;5049529;28;20021;-70
2022/12/24 06:48:09;;;;;;;62.22;8.35;;;9.80;99.90;;;;;;5043550;28;20044;-70
2022/12/24 06:50:34;;;;;;;58.53;7.68;;;9.70;99.90;;;;;;5044339;28;20021;-70
2022/12/24 06:53:00;;;;;;;55.80;6.78;;;9.60;99.90;;;;;;5040927;28;20038;-71
2022/12/24 06:55:26;;;;;;;62.45;8.05;;;9.60;99.90;;;;;;5046793;28;20563;-70
2022/12/24 06:57:51;;;;;;;42.45;6.20;;;9.50;99.90;;;;;;5049653;28;20036;-71
2022/12/24 07:00:17;;;;;;;63.28;7.55;;;9.50;99.90;;;;;;5050242;28;20025;-70
2022/12/24 07:02:43;;;;;;;64.28;8.85;;;9.50;99.90;;;;;;5051012;28;20025;-70
2022/12/24 07:05:11;;;;;;;55.35;7.80;;;9.50;99.90;;;;;;5049133;28;20056;-70
2022/12/24 07:07:38;;;;;;;51.15;6.63;;;9.40;99.90;;;;;;5053191;28;20389;-71
2022/12/24 07:10:05;;;;;;;62.22;8.23;;;9.30;99.90;;;;;;5053706;28;20471;-70
2022/12/24 07:12:31;;;;;;;62.17;7.63;;;9.30;99.90;;;;;;5053241;28;20492;-70
2022/12/24 07:14:56;;;;;;;59.13;8.23;;;9.30;99.90;;;;;;5054410;28;20028;-70
2022/12/24 07:17:22;;;;;;;60.65;8.07;;;9.30;99.90;;;;;;5054089;28;20112;-70
2022/12/24 07:19:48;;;;;;;50.92;7.60;;;9.30;99.90;;;;;;5054621;28;20074;-70
2022/12/24 07:22:16;;;;;;;65.72;9.20;;;9.30;99.90;;;;;;5054536;28;20092;-72
2022/12/24 07:24:41;;;;;;;61.22;6.93;;;9.30;99.90;;;;;;5056386;28;20500;-70
2022/12/24 07:27:07;;;;;;;55.60;7.70;;;9.40;99.90;;;;;;5056973;28;20075;-71
2022/12/24 07:29:33;;;;;;;58.45;7.70;;;9.40;99.90;;;;;;5056541;28;20025;-70
2022/12/24 07:31:59;;;;;;;70.85;9.45;;;9.50;99.90;;;;;;5056721;28;20116;-70
2022/12/24 07:34:25;;;;;;;63.60;8.82;;;9.50;99.90;;;;;;5056422;28;20051;-71
2022/12/24 07:36:50;;;;;;;64.63;8.00;;;9.50;99.90;;;;;;5053827;28;20078;-70
2022/12/24 07:39:16;;;;;;;80.93;10.13;;;9.50;99.90;;;;;;5053023;28;20033;-69
2022/12/24 07:41:42;;;;;;;65.78;10.93;;;9.60;99.90;;;;;;5053170;28;20075;-71
2022/12/24 07:44:12;;;;;;;66.03;10.15;;;9.60;99.90;;;;;;5053254;28;20029;-71
2022/12/24 07:46:38;;;;;;;59.90;8.10;;;9.60;99.90;;;;;;5051579;28;20033;-70
2022/12/24 07:49:03;;;;;;;70.50;9.23;;;9.70;99.90;;;;;;5053434;28;20032;-70
2022/12/24 07:51:29;;;;;;;57.20;8.15;;;9.80;99.90;;;;;;5053631;28;20471;-70
2022/12/24 07:53:54;;;;;;;57.08;8.60;;;9.70;99.90;;;;;;5051036;28;20408;-71
2022/12/24 07:56:20;;;;;;;67.47;8.88;;;9.80;99.90;;;;;;5053502;28;20083;-70
2022/12/24 07:58:46;;;;;;;60.25;8.55;;;9.80;99.90;;;;;;5053621;28;20021;-70
2022/12/24 08:01:11;;;;;;;57.15;8.95;;;9.90;99.90;;;;;;5052898;28;20029;-71
2022/12/24 08:03:37;;;;;;;55.10;7.45;;;9.90;99.90;;;;;;5051513;28;20029;-69
2022/12/24 08:06:03;;;;;;;46.83;6.68;;;9.90;99.90;;;;;;5049001;28;20481;-71
2022/12/24 08:08:29;;;;;;;46.83;7.78;;;10.00;99.90;;;;;;5052407;28;20073;-70
2022/12/24 08:11:01;;;;;;;54.47;8.63;;;10.00;99.90;;;;;;5046882;28;20021;-70
2022/12/24 08:13:26;;;;;;;58.72;8.20;;;10.10;99.90;;;;;;5049269;28;20530;-70
2022/12/24 08:15:52;;;;;;;47.25;7.53;;;10.10;99.90;;;;;;5049613;28;20036;-71
2022/12/24 08:18:17;;;;;;;50.55;7.85;;;10.10;99.90;;;;;;5048635;28;20029;-70
2022/12/24 08:20:43;;;;;;;59.30;7.30;;;10.00;99.90;;;;;;5046893;28;20033;-70
2022/12/24 08:23:09;;;;;;;55.83;8.80;;;10.00;99.90;;;;;;5048728;28;20462;-70
2022/12/24 08:25:35;;;;;;;60.15;7.30;;;10.00;99.90;;;;;;5047254;28;20127;-71
2022/12/24 08:28:04;;;;;;;42.53;6.72;;;10.00;99.90;;;;;;5045914;28;20033;-71
2022/12/24 08:30:30;;;;;;;46.92;6.00;;;10.00;99.90;;;;;;5050503;28;20024;-70
2022/12/24 08:32:55;;;;;;;57.22;7.38;;;9.90;99.90;;;;;;5046994;28;20029;-70
2022/12/24 08:35:21;;;;;;;42.55;5.72;;;10.00;99.90;;;;;;5050566;28;20021;-72
2022/12/24 08:37:46;;;;;;;47.47;7.25;;;10.00;99.90;;;;;;5047432;28;20485;-71
2022/12/24 08:40:12;;;;;;;48.25;7.50;;;10.00;99.90;;;;;;5042100;28;20029;-71
2022/12/24 08:42:38;;;;;;;48.97;7.43;;;10.00;99.90;;;;;;5034088;28;20072;-70
2022/12/24 08:45:04;;;;;;;58.80;7.93;;;10.00;99.90;;;;;;5034440;28;20017;-70
2022/12/24 08:47:29;;;;;;;45.38;8.88;;;10.00;99.90;;;;;;5041735;28;20045;-70
2022/12/24 08:49:55;;;;;;;53.13;7.72;;;10.00;99.90;;;;;;5041405;28;20017;-70
2022/12/24 08:52:20;;;;;;;46.25;7.82;;;10.00;99.90;;;;;;5042001;28;20469;-68
2022/12/24 08:54:46;;;;;;;57.20;7.82;;;10.00;99.90;;;;;;5034760;28;20048;-70
2022/12/24 08:57:13;;;;;;;48.92;6.70;;;10.00;99.90;;;;;;5033550;28;20121;-70
2022/12/24 08:59:39;;;;;;;42.78;6.43;;;10.00;99.90;;;;;;5034236;28;20032;-70
2022/12/24 09:02:05;;;;;;;46.50;7.47;;;10.10;99.90;;;;;;5034274;28;20021;-71
2022/12/24 09:04:30;;;;;;;47.58;8.25;;;10.10;99.90;;;;;;5033828;28;20075;-71
2022/12/24 09:06:56;;;;;;;49.17;8.65;;;10.20;99.90;;;;;;5033537;28;20036;-72
2022/12/24 09:09:21;;;;;;;56.83;8.05;;;10.10;99.90;;;;;;5034236;28;20029;-70
2022/12/24 09:11:47;;;;;;;50.10;7.82;;;10.20;99.90;;;;;;5033363;28;20021;-71
2022/12/24 09:14:12;;;;;;;50.97;7.88;;;10.30;99.90;;;;;;5033776;28;20492;-71
2022/12/24 09:16:38;;;;;;;45.22;7.82;;;10.20;99.90;;;;;;5034368;28;20014;-70
2022/12/24 09:19:04;;;;;;;44.60;5.95;;;10.20;99.90;;;;;;5033278;28;20080;-70
2022/12/24 09:21:30;;;;;;;34.67;6.13;;;10.20;99.90;;;;;;5034281;28;20117;-70
2022/12/24 09:23:56;;;;;;;47.05;6.80;;;10.20;99.90;;;;;;5044615;28;20040;-70
2022/12/24 09:26:24;;;;;;;41.65;8.27;;;10.20;99.90;;;;;;5034393;28;20397;-70
2022/12/24 09:28:51;;;;;;;49.80;6.43;;;10.20;99.90;;;;;;5033784;28;20473;-70
2022/12/24 09:31:17;;;;;;;39.13;7.95;;;10.20;99.90;;;;;;5032619;28;20045;-70
2022/12/24 09:33:47;;;;;;;47.85;7.40;;;10.20;99.90;;;;;;5033528;28;20022;-70
2022/12/24 09:36:13;;;;;;;39.17;6.28;;;10.20;99.90;;;;;;5032960;28;20432;-70
2022/12/24 09:38:41;;;;;;;35.53;5.35;;;10.30;99.90;;;;;;5040317;28;20076;-70
2022/12/24 09:41:23;;;;;;;47.28;6.65;;;10.30;99.90;;;;;;5033212;28;20021;-70
2022/12/24 09:43:54;;;;;;;43.58;6.68;;;10.40;99.90;;;;;;5049355;28;20099;-71
2022/12/24 09:46:25;;;;;;;45.20;6.38;;;10.50;99.90;;;;;;5045196;28;20117;-70
2022/12/24 09:48:56;;;;;;;37.83;5.72;;;10.50;99.90;;;;;;5033134;28;20441;-70
2022/12/24 09:51:42;;;;;;;42.88;5.40;;;10.50;99.90;;;;;;5034286;28;20477;-71
2022/12/24 09:54:36;;;;;;;47.13;6.35;;;10.60;99.90;;;;;;5033381;28;20121;-72
2022/12/24 09:57:11;;;;;;;43.15;6.22;;;10.70;99.90;;;;;;5051225;28;20552;-72
2022/12/24 09:59:41;;;;;;;51.08;6.43;;;10.70;99.90;;;;;;5053379;28;20055;-72
2022/12/24 10:02:15;;;;;;;58.78;8.00;;;10.70;99.90;;;;;;5053443;28;20386;-73
2022/12/24 10:04:42;;;;;;;44.72;7.20;;;10.70;99.90;;;;;;5053220;28;20029;-72
2022/12/24 10:07:23;;;;;;;34.60;6.13;;;10.70;99.90;;;;;;5052462;28;20094;-72
2022/12/24 10:10:26;;;;;;;40.95;6.70;;;10.80;99.90;;;;;;5053025;28;20454;-72
2022/12/24 10:13:10;;;;;;;52.10;7.15;;;10.80;99.90;;;;;;5050595;28;20056;-71
2022/12/24 10:16:01;;;;;;;43.35;7.40;;;10.80;99.90;;;;;;5046422;28;20032;-72
2022/12/24 10:18:54;;;;;;;40.55;7.95;;;10.80;99.90;;;;;;5039767;28;20033;-71
2022/12/24 10:21:38;;;;;;;44.63;7.60;;;10.80;99.90;;;;;;5038788;28;20103;-71
2022/12/24 10:24:17;;;;;;;51.50;8.38;;;10.70;99.90;;;;;;5045623;28;20147;-70
2022/12/24 10:26:56;;;;;;;49.97;7.28;;;10.90;99.90;;;;;;5038827;28;20032;-72
2022/12/24 10:29:34;;;;;;;41.17;7.13;;;10.90;99.90;;;;;;5047485;28;20025;-72
2022/12/24 10:32:16;;;;;;;44.15;8.13;;;10.90;99.90;;;;;;5045220;28;20100;-73
2022/12/24 10:34:45;;;;;;;49.55;7.95;;;10.90;99.90;;;;;;5032161;28;20061;-72
2022/12/24 10:37:16;;;;;;;56.40;7.80;;;11.00;99.90;;;;;;5032079;28;20049;-71
2022/12/24 10:39:42;;;;;;;45.05;8.07;;;11.00;99.90;;;;;;5032866;28;20026;-70
2022/12/24 10:42:09;;;;;;;46.88;7.80;;;11.00;99.90;;;;;;5030549;28;20032;-72
2022/12/24 10:44:36;;;;;;;35.70;5.78;;;10.90;99.90;;;;;;5032794;28;20029;-73
2022/12/24 10:47:05;;;;;;;48.40;9.98;;;10.90;99.90;;;;;;5040658;28;20476;-71
2022/12/24 10:50:03;;;;;;;35.70;5.95;;;10.80;99.90;;;;;;5052113;28;20047;-72
2022/12/24 10:52:34;;;;;;;51.50;7.35;;;10.80;99.90;;;;;;5053232;28;20075;-70
2022/12/24 10:55:08;;;;;;;44.50;6.97;;;10.80;99.90;;;;;;5038116;28;20142;-70
2022/12/24 10:57:34;;;;;;;41.33;7.13;;;10.80;99.90;;;;;;5046600;28;20028;-72
2022/12/24 11:00:00;;;;;;;51.42;8.18;;;10.70;99.90;;;;;;5048006;28;20457;-71
2022/12/24 11:02:32;;;;;;;50.05;6.65;;;10.70;99.90;;;;;;5033716;28;20109;-72
2022/12/24 11:05:00;;;;;;;40.53;6.30;;;10.70;99.90;;;;;;5047548;28;20033;-72
2022/12/24 11:07:28;;;;;;;51.90;9.32;;;10.70;99.90;;;;;;5051141;28;20065;-72
2022/12/24 11:10:05;;;;;;;58.78;16.33;;;10.70;99.90;;;;;;5042573;28;20021;-72
2022/12/24 11:12:34;;;;;;;52.97;11.30;;;10.70;99.90;;;;;;5043945;28;20047;-72
2022/12/24 11:15:27;;;;;;;41.38;6.25;;;10.70;99.90;;;;;;5048827;28;20044;-72
2022/12/24 11:18:13;;;;;;;41.38;6.82;;;10.70;99.90;;;;;;5045905;28;20064;-72
2022/12/24 11:20:39;;;;;;;44.78;6.22;;;10.70;99.90;;;;;;5048721;28;20017;-70
2022/12/24 11:23:14;;;;;;;40.25;5.60;;;10.70;99.90;;;;;;5048878;28;20044;-72
2022/12/24 11:25:45;;;;;;;42.90;6.65;;;10.70;99.90;;;;;;5046852;28;20560;-71
2022/12/24 11:28:19;;;;;;;49.78;7.55;;;10.70;99.90;;;;;;5048190;28;20040;-71
2022/12/24 11:30:56;;;;;;;37.42;7.38;;;10.60;99.90;;;;;;5044888;28;20029;-72
2022/12/24 11:33:22;;;;;;;45.20;5.45;;;10.60;99.90;;;;;;5040009;28;20096;-71
2022/12/24 11:35:55;;;;;;;36.78;6.03;;;10.70;99.90;;;;;;5040073;28;20033;-71
2022/12/24 11:38:24;;;;;;;46.08;6.53;;;10.80;99.90;;;;;;5048874;28;20086;-72
2022/12/24 11:41:07;;;;;;;34.75;6.57;;;10.80;99.90;;;;;;5048905;28;20029;-74
2022/12/24 11:43:49;;;;;;;44.88;7.63;;;10.80;99.90;;;;;;5050400;28;20017;-72
2022/12/24 11:46:16;;;;;;;43.13;6.22;;;10.90;99.90;;;;;;5047289;28;20194;-71
2022/12/24 11:48:43;;;;;;;37.75;6.03;;;10.80;99.90;;;;;;5050211;28;20389;-71
2022/12/24 11:51:26;;;;;;;31.15;5.38;;;10.80;99.90;;;;;;5049944;28;20025;-71
2022/12/24 11:54:03;;;;;;;36.22;5.43;;;10.90;99.90;;;;;;5049131;28;20049;-71
2022/12/24 11:56:35;;;;;;;29.83;5.55;;;10.90;99.90;;;;;;5053522;28;20082;-72
2022/12/24 11:59:11;;;;;;;31.85;5.20;;;10.90;99.90;;;;;;5048856;28;20076;-72
2022/12/24 12:01:53;;;;;;;35.70;4.43;;;10.90;99.90;;;;;;5052875;28;20373;-72
2022/12/24 12:04:23;;;;;;;40.90;6.32;;;11.00;99.90;;;;;;5048657;28;20017;-72
2022/12/24 12:07:14;;;;;;;39.42;5.57;;;11.00;99.90;;;;;;5048928;28;20025;-71
2022/12/24 12:09:55;;;;;;;30.60;4.65;;;11.00;99.90;;;;;;5050047;28;20116;-72
2022/12/24 12:12:31;;;;;;;36.85;5.10;;;11.00;99.90;;;;;;5046213;28;20503;-73
2022/12/24 12:15:05;;;;;;;31.13;4.40;;;11.00;99.90;;;;;;5049023;28;20059;-72
2022/12/24 12:17:45;;;;;;;28.58;4.45;;;11.00;99.90;;;;;;5048686;28;20023;-73
2022/12/24 12:20:24;;;;;;;28.48;4.35;;;11.00;99.90;;;;;;5050446;28;20036;-72
2022/12/24 12:22:58;;;;;;;35.40;4.88;;;11.00;99.90;;;;;;5045843;28;20017;-73
2022/12/24 12:25:45;;;;;;;32.75;4.72;;;10.90;99.90;;;;;;5051721;28;20069;-73
2022/12/24 12:28:22;;;;;;;23.20;4.43;;;10.90;99.90;;;;;;5050579;28;20429;-72
2022/12/24 12:31:17;;;;;;;20.33;3.55;;;10.90;99.90;;;;;;5041662;28;20580;-73
2022/12/24 12:33:53;;;;;;;32.17;6.35;;;10.90;99.90;;;;;;5048026;28;20101;-72
2022/12/24 12:36:26;;;;;;;36.72;5.80;;;11.00;99.90;;;;;;5050094;28;20028;-72
2022/12/24 12:38:52;;;;;;;31.95;4.60;;;11.00;99.90;;;;;;5050369;28;20038;-73
2022/12/24 12:41:26;;;;;;;38.30;7.55;;;11.10;99.90;;;;;;5048080;28;20029;-72
2022/12/24 12:44:40;;;;;;;31.60;7.07;;;11.00;99.90;;;;;;5046749;28;20029;-72
2022/12/24 12:47:24;;;;;;;37.15;8.05;;;11.10;99.90;;;;;;5034297;28;20469;-72
2022/12/24 12:50:13;;;;;;;32.80;5.95;;;11.10;99.90;;;;;;5033710;28;20450;-72
2022/12/24 12:53:03;;;;;;;34.05;5.38;;;11.10;99.90;;;;;;5034477;28;20028;-72
2022/12/24 12:55:59;;;;;;;42.42;6.10;;;11.20;99.90;;;;;;5039278;28;20401;-72
2022/12/24 12:58:37;;;;;;;34.95;5.60;;;11.30;99.90;;;;;;5052212;28;20044;-73
2022/12/24 13:01:16;;;;;;;43.67;7.57;;;11.40;99.90;;;;;;5053947;28;20395;-72
2022/12/24 13:03:57;;;;;;;32.25;6.22;;;11.40;99.90;;;;;;5034410;28;20029;-72
2022/12/24 13:06:44;;;;;;;30.90;6.43;;;11.40;99.90;;;;;;5035039;28;20026;-72
2022/12/24 13:09:36;;;;;;;39.85;6.75;;;11.40;99.90;;;;;;5032364;28;20049;-72